Time;durP1;ratioP1;P1;durP2;ratioP2;P2;SDS_P1;SDS_P2;PMS_P1;PMS_P2;Temp;Humidity;BMP_temperature;BMP_pressure;BME280_temperature;BME280_humidity;BME280_pressure;Samples;Min_cycle;Max_cycle;Signal;HPM_P1;HPM_P2
2023/03/24 00:00:27;;;;;;;3.47;3.00;;;;;;;;;;5094345;28;20236;-83
2023/03/24 00:02:55;;;;;;;2.90;2.60;;;;;;;;;;5094254;28;20224;-83
2023/03/24 00:05:22;;;;;;;2.60;2.40;;;;;;;;;;5097620;28;20212;-82
2023/03/24 00:07:50;;;;;;;3.07;2.63;;;;;;;;;;5093519;28;20228;-83
2023/03/24 00:10:19;;;;;;;4.47;3.07;;;;;;;;;;5093824;28;20225;-83
2023/03/24 00:12:46;;;;;;;3.20;2.90;;;;;;;;;;5093525;28;20308;-83
2023/03/24 00:15:14;;;;;;;3.07;2.83;;;;;;;;;;5093852;28;20209;-83
2023/03/24 00:17:41;;;;;;;3.20;2.90;;;;;;;;;;5093025;28;20225;-83
2023/03/24 00:20:12;;;;;;;3.80;2.90;;;;;;;;;;5094332;28;20225;-83
2023/03/24 00:22:41;;;;;;;3.17;2.87;;;;;;;;;;5093362;28;20323;-83
2023/03/24 00:25:08;;;;;;;4.73;3.23;;;;;;;;;;5093872;28;20204;-83
2023/03/24 00:27:37;;;;;;;3.20;2.90;;;;;;;;;;5093475;28;20703;-83
2023/03/24 00:30:05;;;;;;;3.53;3.07;;;;;;;;;;5093862;28;20735;-83
2023/03/24 00:32:32;;;;;;;3.10;2.80;;;;;;;;;;5093299;28;20267;-83
2023/03/24 00:35:00;;;;;;;3.37;2.87;;;;;;;;;;5093820;28;20668;-83
2023/03/24 00:37:27;;;;;;;4.03;2.87;;;;;;;;;;5093032;28;20627;-83
2023/03/24 00:39:54;;;;;;;4.73;2.83;;;;;;;;;;5093606;28;20236;-83
2023/03/24 00:42:23;;;;;;;4.23;3.03;;;;;;;;;;5092889;28;20251;-83
2023/03/24 00:44:52;;;;;;;3.20;2.90;;;;;;;;;;5093835;28;20272;-83
2023/03/24 00:47:25;;;;;;;4.27;2.93;;;;;;;;;;5093113;28;20228;-83
2023/03/24 00:49:53;;;;;;;4.10;3.23;;;;;;;;;;5093750;28;20219;-83
2023/03/24 00:52:21;;;;;;;4.20;2.90;;;;;;;;;;5098377;28;20247;-83
2023/03/24 00:54:49;;;;;;;3.40;3.10;;;;;;;;;;5097530;28;20294;-82
2023/03/24 00:57:20;;;;;;;3.07;2.77;;;;;;;;;;5095713;28;20330;-83
2023/03/24 00:59:47;;;;;;;3.40;3.10;;;;;;;;;;5093316;28;20241;-83
2023/03/24 01:02:18;;;;;;;3.03;2.73;;;;;;;;;;5092397;28;20243;-83
2023/03/24 01:04:46;;;;;;;3.30;2.97;;;;;;;;;;5093519;28;20288;-83
2023/03/24 01:07:17;;;;;;;3.80;3.17;;;;;;;;;;5092704;28;20608;-83
2023/03/24 01:09:45;;;;;;;3.10;2.80;;;;;;;;;;5093406;28;20671;-83
2023/03/24 01:12:12;;;;;;;3.87;2.73;;;;;;;;;;5092366;28;20242;-83
2023/03/24 01:14:39;;;;;;;3.57;2.90;;;;;;;;;;5093216;28;20222;-83
2023/03/24 01:17:06;;;;;;;5.13;3.13;;;;;;;;;;5092609;28;20232;-83
2023/03/24 01:19:35;;;;;;;3.20;2.90;;;;;;;;;;5092520;28;20228;-83
2023/03/24 01:22:02;;;;;;;3.03;2.83;;;;;;;;;;5092114;28;20650;-84
2023/03/24 01:24:30;;;;;;;3.13;2.93;;;;;;;;;;5093160;28;20205;-83
2023/03/24 01:26:57;;;;;;;3.30;2.97;;;;;;;;;;5092385;28;20564;-84
2023/03/24 01:29:24;;;;;;;4.47;3.20;;;;;;;;;;5092492;28;20608;-83
2023/03/24 01:31:51;;;;;;;3.60;3.30;;;;;;;;;;5092274;28;20224;-84
2023/03/24 01:34:18;;;;;;;4.47;3.10;;;;;;;;;;5092485;28;20546;-83
2023/03/24 01:36:47;;;;;;;4.43;3.00;;;;;;;;;;5092311;28;20241;-84
2023/03/24 01:39:14;;;;;;;3.37;3.07;;;;;;;;;;5092376;28;20235;-83
2023/03/24 01:41:41;;;;;;;4.17;3.30;;;;;;;;;;5092069;28;20567;-83
2023/03/24 01:44:24;;;;;;;3.47;3.10;;;;;;;;;;5092477;28;20212;-84
2023/03/24 01:46:52;;;;;;;5.27;3.53;;;;;;;;;;5092093;28;20251;-83
2023/03/24 01:49:19;;;;;;;3.60;3.20;;;;;;;;;;5092051;28;20231;-83
2023/03/24 01:51:48;;;;;;;3.27;2.97;;;;;;;;;;5091653;28;20228;-84
2023/03/24 01:54:19;;;;;;;4.73;2.90;;;;;;;;;;5092870;28;20208;-84
2023/03/24 01:56:49;;;;;;;3.23;2.93;;;;;;;;;;5091899;28;20314;-83
2023/03/24 01:59:19;;;;;;;4.93;3.33;;;;;;;;;;5091988;28;20220;-84
2023/03/24 02:01:46;;;;;;;4.83;3.40;;;;;;;;;;5086817;28;20236;-84
2023/03/24 02:04:14;;;;;;;3.27;3.07;;;;;;;;;;5085154;28;20205;-83
2023/03/24 02:06:43;;;;;;;3.10;2.80;;;;;;;;;;5078822;28;20213;-84
2023/03/24 02:09:12;;;;;;;4.23;3.20;;;;;;;;;;5072125;28;20226;-83
2023/03/24 02:11:40;;;;;;;3.40;3.10;;;;;;;;;;5085748;28;20211;-83
2023/03/24 02:14:08;;;;;;;3.37;3.07;;;;;;;;;;5091642;28;20188;-83
2023/03/24 02:16:54;;;;;;;3.40;3.10;;;;;;;;;;5091574;28;20204;-84
2023/03/24 02:19:39;;;;;;;3.20;2.90;;;;;;;;;;5091656;28;20227;-84
2023/03/24 02:22:20;;;;;;;3.37;3.07;;;;;;;;;;5049476;28;20224;-83
2023/03/24 02:25:03;;;;;;;4.20;3.20;;;;;;;;;;5091975;28;20204;-83
2023/03/24 02:27:45;;;;;;;4.50;3.27;;;;;;;;;;5071481;28;20261;-83
2023/03/24 02:30:30;;;;;;;3.30;3.10;;;;;;;;;;5077067;28;20586;-83
2023/03/24 02:33:15;;;;;;;3.27;2.97;;;;;;;;;;5090805;28;20224;-83
2023/03/24 02:35:49;;;;;;;3.47;3.17;;;;;;;;;;5092051;28;20220;-83
2023/03/24 02:38:29;;;;;;;3.33;3.03;;;;;;;;;;5091428;28;20223;-83
2023/03/24 02:41:01;;;;;;;3.33;3.03;;;;;;;;;;5092047;28;20215;-83
2023/03/24 02:43:33;;;;;;;4.13;3.33;;;;;;;;;;5091234;28;20243;-83
2023/03/24 02:46:06;;;;;;;3.40;3.10;;;;;;;;;;5091780;28;20250;-83
2023/03/24 02:48:38;;;;;;;3.50;2.83;;;;;;;;;;5091227;28;20243;-83
2023/03/24 02:51:08;;;;;;;3.97;3.13;;;;;;;;;;5091439;28;20208;-84
2023/03/24 02:53:41;;;;;;;3.33;3.03;;;;;;;;;;5091192;28;20243;-83
2023/03/24 02:56:11;;;;;;;4.07;2.60;;;;;;;;;;5091796;28;20181;-84
2023/03/24 02:58:41;;;;;;;2.90;2.57;;;;;;;;;;5090704;28;20232;-84
2023/03/24 03:01:12;;;;;;;4.50;2.60;;;;;;;;;;5093942;28;20189;-84
2023/03/24 03:03:41;;;;;;;3.07;2.77;;;;;;;;;;5095005;28;20232;-84
2023/03/24 03:06:12;;;;;;;2.80;2.60;;;;;;;;;;5095659;28;20296;-84
2023/03/24 03:08:41;;;;;;;3.13;2.83;;;;;;;;;;5096305;28;20232;-83
2023/03/24 03:11:12;;;;;;;2.97;2.70;;;;;;;;;;5095543;28;20215;-84
2023/03/24 03:13:40;;;;;;;2.90;2.70;;;;;;;;;;5094827;28;20224;-84
2023/03/24 03:16:09;;;;;;;3.43;3.13;;;;;;;;;;5095295;28;20201;-84
2023/03/24 03:18:40;;;;;;;3.57;2.43;;;;;;;;;;5094355;28;20598;-84
2023/03/24 03:21:11;;;;;;;3.57;2.97;;;;;;;;;;5094946;28;20219;-84
2023/03/24 03:23:40;;;;;;;4.40;2.90;;;;;;;;;;5094543;28;20235;-84
2023/03/24 03:26:11;;;;;;;5.07;3.17;;;;;;;;;;5080445;28;20200;-83
2023/03/24 03:28:42;;;;;;;3.00;2.77;;;;;;;;;;5094648;28;20319;-84
2023/03/24 03:31:13;;;;;;;2.97;2.63;;;;;;;;;;5095153;28;20732;-84
2023/03/24 03:33:43;;;;;;;3.23;2.83;;;;;;;;;;5094735;28;20237;-84
2023/03/24 03:36:15;;;;;;;3.83;3.23;;;;;;;;;;5095110;28;20208;-84
2023/03/24 03:38:46;;;;;;;3.80;2.70;;;;;;;;;;5094212;28;20235;-84
2023/03/24 03:41:15;;;;;;;2.70;2.50;;;;;;;;;;5094772;28;20760;-83
2023/03/24 03:43:44;;;;;;;2.70;2.50;;;;;;;;;;5094155;28;20233;-83
2023/03/24 03:46:11;;;;;;;4.60;2.70;;;;;;;;;;5095263;28;20212;-84
2023/03/24 03:48:39;;;;;;;2.93;2.37;;;;;;;;;;5094061;28;20232;-84
2023/03/24 03:51:07;;;;;;;4.17;2.87;;;;;;;;;;5094846;28;20232;-84
2023/03/24 03:53:38;;;;;;;3.50;2.70;;;;;;;;;;5094033;28;20224;-84
2023/03/24 03:56:05;;;;;;;2.63;2.43;;;;;;;;;;5094584;28;20645;-84
2023/03/24 03:58:32;;;;;;;3.80;3.50;;;;;;;;;;5093851;28;20232;-84
2023/03/24 04:01:02;;;;;;;3.57;2.90;;;;;;;;;;5099312;28;20209;-84
2023/03/24 04:03:36;;;;;;;3.43;2.37;;;;;;;;;;5093861;28;20233;-84
2023/03/24 04:06:07;;;;;;;3.33;3.03;;;;;;;;;;5093969;28;20181;-84
2023/03/24 04:08:43;;;;;;;4.47;3.40;;;;;;;;;;5093671;28;20256;-84
2023/03/24 04:11:16;;;;;;;3.63;3.10;;;;;;;;;;5094173;28;20208;-84
2023/03/24 04:13:50;;;;;;;3.60;2.80;;;;;;;;;;5093179;28;20229;-84
2023/03/24 04:16:22;;;;;;;3.53;3.00;;;;;;;;;;5093947;28;20238;-84
2023/03/24 04:19:05;;;;;;;3.60;3.30;;;;;;;;;;5093469;28;20220;-84
2023/03/24 04:21:41;;;;;;;3.73;3.43;;;;;;;;;;5093741;28;20197;-84
2023/03/24 04:24:14;;;;;;;5.23;2.70;;;;;;;;;;5094489;28;20196;-84
2023/03/24 04:26:44;;;;;;;3.13;2.83;;;;;;;;;;5093053;28;20240;-85
2023/03/24 04:29:16;;;;;;;2.77;2.57;;;;;;;;;;5093437;28;20225;-84
2023/03/24 04:31:48;;;;;;;3.40;3.10;;;;;;;;;;5093221;28;20224;-85
2023/03/24 04:34:20;;;;;;;3.67;3.37;;;;;;;;;;5093965;28;20220;-85
2023/03/24 04:36:53;;;;;;;3.20;2.80;;;;;;;;;;5093348;28;20232;-85
2023/03/24 04:39:24;;;;;;;3.93;3.20;;;;;;;;;;5094091;28;20335;-84
2023/03/24 04:41:51;;;;;;;3.60;3.00;;;;;;;;;;5093234;28;20311;-84
2023/03/24 04:44:21;;;;;;;3.30;3.00;;;;;;;;;;5094467;28;20205;-84
2023/03/24 04:46:50;;;;;;;3.23;3.00;;;;;;;;;;5093436;28;20232;-86
2023/03/24 04:49:18;;;;;;;5.17;3.20;;;;;;;;;;5095335;28;20227;-86
2023/03/24 04:51:46;;;;;;;3.73;3.13;;;;;;;;;;5096036;28;20236;-84
2023/03/24 04:54:13;;;;;;;2.67;2.47;;;;;;;;;;5095594;28;20201;-86
2023/03/24 04:56:41;;;;;;;3.67;3.40;;;;;;;;;;5093313;28;20241;-84
2023/03/24 04:59:08;;;;;;;3.47;3.17;;;;;;;;;;5077280;28;20235;-84
2023/03/24 05:01:36;;;;;;;3.70;3.40;;;;;;;;;;5104564;22;20237;-86
2023/03/24 05:04:04;;;;;;;4.03;3.63;;;;;;;;;;5092007;28;20201;-86
2023/03/24 05:06:32;;;;;;;4.13;3.30;;;;;;;;;;5088955;28;20213;-83
2023/03/24 05:08:59;;;;;;;5.43;3.40;;;;;;;;;;5086774;28;20223;-84
2023/03/24 05:11:26;;;;;;;4.33;3.10;;;;;;;;;;5087110;28;20221;-86
2023/03/24 05:13:53;;;;;;;4.33;3.20;;;;;;;;;;5089539;28;20205;-87
2023/03/24 05:16:20;;;;;;;4.40;3.00;;;;;;;;;;5087095;28;20198;-86
2023/03/24 05:18:47;;;;;;;4.00;3.00;;;;;;;;;;5076433;28;20209;-86
2023/03/24 05:21:16;;;;;;;3.90;3.60;;;;;;;;;;5086386;28;20226;-85
2023/03/24 05:23:43;;;;;;;4.47;3.10;;;;;;;;;;5071844;28;20218;-85
2023/03/24 05:26:10;;;;;;;3.50;3.20;;;;;;;;;;5074266;28;20197;-87
2023/03/24 05:28:37;;;;;;;3.07;2.87;;;;;;;;;;5074766;28;20294;-86
2023/03/24 05:31:04;;;;;;;3.47;3.17;;;;;;;;;;5073607;28;20286;-87
2023/03/24 05:33:32;;;;;;;3.60;3.33;;;;;;;;;;5072637;28;20241;-87
2023/03/24 05:35:59;;;;;;;3.10;2.83;;;;;;;;;;5069991;28;20210;-88
2023/03/24 05:38:27;;;;;;;3.37;3.10;;;;;;;;;;5052165;28;20845;-88
2023/03/24 05:40:57;;;;;;;2.73;2.50;;;;;;;;;;5052271;28;20321;-87
2023/03/24 05:43:24;;;;;;;2.93;2.67;;;;;;;;;;5051788;28;20254;-87
2023/03/24 05:45:51;;;;;;;4.07;2.87;;;;;;;;;;5052301;28;20217;-87
2023/03/24 05:48:18;;;;;;;2.63;2.43;;;;;;;;;;5051846;28;20628;-87
2023/03/24 05:50:45;;;;;;;4.13;2.90;;;;;;;;;;5052500;28;20222;-87
2023/03/24 05:53:12;;;;;;;2.60;2.43;;;;;;;;;;5051706;28;20236;-87
2023/03/24 05:55:41;;;;;;;3.40;2.50;;;;;;;;;;5051937;28;20267;-87
2023/03/24 05:58:08;;;;;;;2.60;2.40;;;;;;;;;;5051700;28;20240;-87
2023/03/24 06:00:35;;;;;;;2.80;2.60;;;;;;;;;;5051758;28;20237;-87
2023/03/24 06:03:02;;;;;;;3.33;2.30;;;;;;;;;;5069635;28;20240;-86
2023/03/24 06:05:30;;;;;;;2.13;2.03;;;;;;;;;;5072370;28;20205;-86
2023/03/24 06:08:00;;;;;;;2.50;2.30;;;;;;;;;;5071593;28;20236;-85
2023/03/24 06:10:27;;;;;;;2.33;1.57;;;;;;;;;;5072383;28;20217;-85
2023/03/24 06:12:56;;;;;;;2.87;2.57;;;;;;;;;;5071224;28;20237;-87
2023/03/24 06:15:26;;;;;;;3.60;2.60;;;;;;;;;;5070708;28;20216;-85
2023/03/24 06:17:54;;;;;;;2.67;2.47;;;;;;;;;;5035099;28;20241;-86
2023/03/24 06:20:21;;;;;;;2.70;2.50;;;;;;;;;;5031731;28;20710;-86
2023/03/24 06:22:49;;;;;;;2.60;2.40;;;;;;;;;;5031396;28;20702;-87
2023/03/24 06:25:19;;;;;;;3.87;2.73;;;;;;;;;;5031980;28;20241;-86
2023/03/24 06:27:46;;;;;;;2.80;2.63;;;;;;;;;;5049130;28;20793;-86
2023/03/24 06:30:16;;;;;;;2.87;2.50;;;;;;;;;;5051687;28;20209;-86
2023/03/24 06:32:45;;;;;;;2.80;2.40;;;;;;;;;;5052686;28;20688;-86
2023/03/24 06:35:12;;;;;;;2.50;2.30;;;;;;;;;;5071706;28;20276;-86
2023/03/24 06:37:39;;;;;;;2.60;2.40;;;;;;;;;;5050488;28;20249;-86
2023/03/24 06:40:09;;;;;;;2.10;2.00;;;;;;;;;;5050164;28;20848;-87
2023/03/24 06:42:36;;;;;;;2.37;2.20;;;;;;;;;;5050216;28;20605;-86
2023/03/24 06:45:04;;;;;;;2.53;2.33;;;;;;;;;;5051577;28;20194;-87
2023/03/24 06:47:32;;;;;;;2.13;2.00;;;;;;;;;;5050615;28;20241;-86
2023/03/24 06:49:59;;;;;;;2.50;2.30;;;;;;;;;;5051050;28;20202;-86
2023/03/24 06:52:27;;;;;;;3.10;2.23;;;;;;;;;;5051451;28;20239;-85
2023/03/24 06:54:54;;;;;;;2.20;2.10;;;;;;;;;;5060113;28;20210;-86
2023/03/24 06:57:21;;;;;;;2.33;2.13;;;;;;;;;;5060126;28;20611;-86
2023/03/24 06:59:48;;;;;;;2.60;2.40;;;;;;;;;;5061741;28;20198;-86
2023/03/24 07:02:16;;;;;;;4.40;2.83;;;;;;;;;;5061035;28;20241;-86
2023/03/24 07:04:44;;;;;;;2.60;2.40;;;;;;;;;;5054910;28;20202;-86
2023/03/24 07:07:12;;;;;;;3.40;2.50;;;;;;;;;;5051527;28;20582;-86
2023/03/24 07:09:39;;;;;;;3.20;2.90;;;;;;;;;;5051288;28;20207;-86
2023/03/24 07:12:07;;;;;;;2.73;2.53;;;;;;;;;;5050722;28;20238;-86
2023/03/24 07:14:34;;;;;;;3.07;2.87;;;;;;;;;;5051607;28;20233;-86
2023/03/24 07:17:01;;;;;;;3.07;2.80;;;;;;;;;;5052496;28;20230;-86
2023/03/24 07:19:28;;;;;;;2.53;2.33;;;;;;;;;;5052990;28;20268;-86
2023/03/24 07:21:56;;;;;;;3.30;2.90;;;;;;;;;;5051057;28;20241;-86
2023/03/24 07:24:24;;;;;;;4.73;3.37;;;;;;;;;;5053991;28;20228;-85
2023/03/24 07:26:51;;;;;;;2.80;2.60;;;;;;;;;;5051820;28;20305;-86
2023/03/24 07:29:18;;;;;;;2.73;2.53;;;;;;;;;;5050891;28;20206;-87
2023/03/24 07:31:47;;;;;;;3.40;3.10;;;;;;;;;;5056678;28;20244;-86
2023/03/24 07:34:14;;;;;;;4.00;3.60;;;;;;;;;;5071736;28;20208;-86
2023/03/24 07:36:41;;;;;;;4.27;3.70;;;;;;;;;;5053620;28;20715;-86
2023/03/24 07:39:11;;;;;;;2.27;2.10;;;;;;;;;;5051728;28;20371;-87
2023/03/24 07:41:38;;;;;;;4.93;3.20;;;;;;;;;;5050794;28;20238;-86
2023/03/24 07:44:05;;;;;;;5.37;3.70;;;;;;;;;;5051288;28;20211;-86
2023/03/24 07:46:32;;;;;;;4.10;3.70;;;;;;;;;;5052326;28;20199;-86
2023/03/24 07:49:00;;;;;;;4.07;3.77;;;;;;;;;;5055893;28;20666;-86
2023/03/24 07:51:28;;;;;;;3.67;3.37;;;;;;;;;;5054248;28;20229;-86
2023/03/24 07:53:56;;;;;;;3.50;3.20;;;;;;;;;;5035345;28;20230;-86
2023/03/24 07:56:24;;;;;;;4.20;3.80;;;;;;;;;;5034560;28;20207;-86
2023/03/24 07:58:51;;;;;;;6.40;4.37;;;;;;;;;;5046843;28;20206;-86
2023/03/24 08:01:18;;;;;;;5.07;3.67;;;;;;;;;;5053519;28;20226;-86
2023/03/24 08:03:47;;;;;;;3.10;2.70;;;;;;;;;;5034103;28;20223;-86
2023/03/24 08:06:16;;;;;;;3.97;3.67;;;;;;;;;;5034246;28;20206;-87
2023/03/24 08:08:43;;;;;;;4.37;3.63;;;;;;;;;;5034095;28;20235;-87
2023/03/24 08:11:10;;;;;;;3.27;2.97;;;;;;;;;;5046744;28;20214;-86
2023/03/24 08:13:39;;;;;;;3.97;3.60;;;;;;;;;;5053188;28;20253;-86
2023/03/24 08:16:06;;;;;;;3.27;3.07;;;;;;;;;;5054059;28;20202;-87
2023/03/24 08:18:33;;;;;;;3.90;3.60;;;;;;;;;;5053600;28;20233;-86
2023/03/24 08:21:01;;;;;;;3.17;2.90;;;;;;;;;;5043761;28;20238;-86
2023/03/24 08:23:28;;;;;;;3.47;3.17;;;;;;;;;;5032982;28;20725;-87
2023/03/24 08:25:55;;;;;;;3.43;3.13;;;;;;;;;;5033817;28;20597;-86
2023/03/24 08:28:22;;;;;;;4.17;3.77;;;;;;;;;;5034336;28;20258;-86
2023/03/24 08:30:51;;;;;;;3.70;3.40;;;;;;;;;;5033698;28;20645;-87
2023/03/24 08:33:18;;;;;;;3.57;3.30;;;;;;;;;;5032986;28;20230;-85
2023/03/24 08:35:45;;;;;;;3.97;3.67;;;;;;;;;;5033779;28;20698;-86
2023/03/24 08:38:15;;;;;;;4.20;3.47;;;;;;;;;;5048768;28;20299;-86
2023/03/24 08:40:43;;;;;;;4.13;3.40;;;;;;;;;;5053007;28;20241;-86
2023/03/24 08:43:14;;;;;;;4.60;4.20;;;;;;;;;;5052699;28;20312;-87
2023/03/24 08:45:41;;;;;;;4.50;3.67;;;;;;;;;;5053530;28;20221;-85
2023/03/24 08:48:09;;;;;;;4.20;3.80;;;;;;;;;;5052568;28;20221;-86
2023/03/24 08:50:38;;;;;;;4.90;4.40;;;;;;;;;;5050004;28;20565;-86
2023/03/24 08:53:12;;;;;;;5.00;3.80;;;;;;;;;;5052422;28;20983;-89
2023/03/24 08:55:41;;;;;;;5.30;3.70;;;;;;;;;;5046428;28;20252;-86
2023/03/24 08:58:09;;;;;;;8.47;5.60;;;;;;;;;;5051988;28;20694;-85
2023/03/24 09:00:36;;;;;;;5.40;3.60;;;;;;;;;;5052428;28;20257;-86
2023/03/24 09:03:05;;;;;;;5.10;4.00;;;;;;;;;;5052048;28;20238;-86
2023/03/24 09:05:33;;;;;;;4.30;3.90;;;;;;;;;;5052838;28;20300;-87
2023/03/24 09:08:02;;;;;;;4.67;4.27;;;;;;;;;;5052259;28;20225;-87
2023/03/24 09:10:29;;;;;;;4.10;3.77;;;;;;;;;;5052491;28;20230;-85
2023/03/24 09:12:56;;;;;;;4.60;4.20;;;;;;;;;;5051564;28;20236;-85
2023/03/24 09:15:23;;;;;;;4.67;4.27;;;;;;;;;;5032709;28;20210;-86
2023/03/24 09:17:50;;;;;;;4.13;3.33;;;;;;;;;;5032497;28;20258;-87
2023/03/24 09:20:17;;;;;;;4.50;3.70;;;;;;;;;;5045892;28;20229;-85
2023/03/24 09:22:46;;;;;;;2.93;2.50;;;;;;;;;;5058934;28;20229;-86
2023/03/24 09:25:14;;;;;;;3.97;3.60;;;;;;;;;;5052454;28;20208;-85
2023/03/24 09:27:42;;;;;;;3.23;3.00;;;;;;;;;;5051986;28;20238;-87
2023/03/24 09:30:10;;;;;;;3.93;3.23;;;;;;;;;;5052371;28;20194;-86
2023/03/24 09:32:37;;;;;;;4.50;3.27;;;;;;;;;;5051171;28;20276;-86
2023/03/24 09:35:04;;;;;;;2.97;2.77;;;;;;;;;;5053053;28;20195;-86
2023/03/24 09:37:32;;;;;;;4.40;3.80;;;;;;;;;;5051291;28;20245;-85
2023/03/24 09:40:01;;;;;;;4.20;3.90;;;;;;;;;;5070968;28;20189;-85
2023/03/24 09:42:30;;;;;;;3.27;2.97;;;;;;;;;;5055650;28;20242;-85
2023/03/24 09:44:58;;;;;;;3.33;3.13;;;;;;;;;;5051745;28;20209;-84
2023/03/24 09:47:30;;;;;;;3.87;3.53;;;;;;;;;;5051011;28;20233;-85
2023/03/24 09:50:00;;;;;;;4.20;3.80;;;;;;;;;;5051857;28;20201;-85
2023/03/24 09:52:30;;;;;;;3.77;3.37;;;;;;;;;;5050420;28;20233;-86
2023/03/24 09:54:58;;;;;;;3.47;3.17;;;;;;;;;;5051588;28;20214;-87
2023/03/24 09:57:29;;;;;;;2.63;2.43;;;;;;;;;;5051000;28;20240;-86
2023/03/24 09:59:56;;;;;;;3.77;3.47;;;;;;;;;;5051660;28;20202;-85
2023/03/24 10:02:23;;;;;;;3.37;3.17;;;;;;;;;;5049654;28;20242;-85
2023/03/24 10:04:51;;;;;;;3.03;2.83;;;;;;;;;;5051655;28;20230;-86
2023/03/24 10:07:24;;;;;;;3.60;3.40;;;;;;;;;;5050620;28;20241;-85
2023/03/24 10:09:53;;;;;;;6.33;3.90;;;;;;;;;;5051099;28;20195;-85
2023/03/24 10:12:24;;;;;;;3.00;2.80;;;;;;;;;;5049501;28;20238;-86
2023/03/24 10:14:58;;;;;;;3.47;3.00;;;;;;;;;;5051563;28;20561;-85
2023/03/24 10:17:30;;;;;;;3.80;3.50;;;;;;;;;;5050741;28;20245;-86
2023/03/24 10:20:01;;;;;;;2.73;2.60;;;;;;;;;;5051022;28;20716;-86
2023/03/24 10:22:31;;;;;;;3.20;2.70;;;;;;;;;;5050011;28;20856;-85
2023/03/24 10:25:03;;;;;;;3.07;2.87;;;;;;;;;;5051121;28;20260;-85
2023/03/24 10:27:33;;;;;;;3.20;2.90;;;;;;;;;;5050263;28;20234;-85
2023/03/24 10:30:05;;;;;;;3.00;2.80;;;;;;;;;;5050848;28;20200;-85
2023/03/24 10:32:34;;;;;;;3.13;2.83;;;;;;;;;;5049850;28;20232;-86
2023/03/24 10:35:08;;;;;;;4.00;1.87;;;;;;;;;;5052616;28;20312;-86
2023/03/24 10:37:36;;;;;;;2.57;1.93;;;;;;;;;;5059218;28;20233;-87
2023/03/24 10:40:05;;;;;;;1.77;1.43;;;;;;;;;;5051530;28;20213;-86
2023/03/24 10:42:35;;;;;;;1.27;1.27;;;;;;;;;;5050019;28;20901;-86
2023/03/24 10:45:03;;;;;;;1.30;1.20;;;;;;;;;;5050705;28;20583;-86
2023/03/24 10:47:31;;;;;;;1.50;1.40;;;;;;;;;;5050718;28;20265;-87
2023/03/24 10:50:00;;;;;;;1.17;1.10;;;;;;;;;;5051390;28;20301;-87
2023/03/24 10:52:28;;;;;;;1.70;1.23;;;;;;;;;;5060887;28;20261;-87
2023/03/24 10:54:56;;;;;;;1.53;1.43;;;;;;;;;;5051708;28;20190;-87
2023/03/24 10:57:24;;;;;;;4.60;1.67;;;;;;;;;;5050875;28;20240;-87
2023/03/24 10:59:54;;;;;;;2.33;1.57;;;;;;;;;;5051445;28;20206;-86
2023/03/24 11:02:24;;;;;;;1.27;1.10;;;;;;;;;;5085178;22;20672;-85
2023/03/24 11:04:53;;;;;;;3.27;1.43;;;;;;;;;;5089929;28;20201;-86
2023/03/24 11:07:21;;;;;;;1.30;1.30;;;;;;;;;;5090103;28;20267;-85
2023/03/24 11:09:56;;;;;;;1.40;1.30;;;;;;;;;;5091827;28;20204;-85
2023/03/24 11:12:25;;;;;;;1.47;1.37;;;;;;;;;;5089151;28;20238;-86
2023/03/24 11:14:59;;;;;;;2.27;1.40;;;;;;;;;;5090953;28;20200;-85
2023/03/24 11:17:28;;;;;;;3.97;1.50;;;;;;;;;;5090485;28;20627;-85
2023/03/24 11:19:56;;;;;;;1.30;1.30;;;;;;;;;;5091276;28;20216;-86
2023/03/24 11:22:24;;;;;;;1.40;1.30;;;;;;;;;;5091661;28;20236;-86
2023/03/24 11:24:53;;;;;;;1.40;1.30;;;;;;;;;;5095105;28;20684;-86
2023/03/24 11:27:20;;;;;;;1.17;1.17;;;;;;;;;;5094448;28;20256;-85
2023/03/24 11:29:50;;;;;;;2.73;1.27;;;;;;;;;;5095145;28;20573;-86
2023/03/24 11:32:21;;;;;;;3.33;1.40;;;;;;;;;;5106276;28;20247;-85
2023/03/24 11:34:55;;;;;;;3.17;2.90;;;;;;;;;;5113202;28;20192;-85
2023/03/24 11:37:23;;;;;;;1.20;1.10;;;;;;;;;;5098065;28;21122;-85
2023/03/24 11:40:06;;;;;;;2.03;1.33;;;;;;;;;;5091948;28;20200;-85
2023/03/24 11:42:33;;;;;;;1.40;1.30;;;;;;;;;;5086958;28;20287;-86
2023/03/24 11:45:00;;;;;;;2.20;1.30;;;;;;;;;;5090996;28;20284;-86
2023/03/24 11:47:30;;;;;;;1.47;1.23;;;;;;;;;;5074059;28;20233;-86
2023/03/24 11:50:04;;;;;;;1.30;1.20;;;;;;;;;;5087513;28;20664;-85
2023/03/24 11:52:34;;;;;;;1.67;1.40;;;;;;;;;;5074612;28;20240;-85
2023/03/24 11:55:01;;;;;;;3.07;1.33;;;;;;;;;;5074596;28;20213;-85
2023/03/24 11:57:36;;;;;;;1.27;1.27;;;;;;;;;;5073748;28;20611;-85
2023/03/24 12:00:08;;;;;;;1.37;1.27;;;;;;;;;;5074383;28;20519;-85
2023/03/24 12:02:44;;;;;;;4.73;1.87;;;;;;;;;;5073542;28;20237;-85
2023/03/24 12:05:15;;;;;;;1.80;1.23;;;;;;;;;;5073994;28;20615;-86
2023/03/24 12:07:57;;;;;;;4.10;1.40;;;;;;;;;;5073666;28;20229;-85
2023/03/24 12:10:29;;;;;;;2.93;1.63;;;;;;;;;;5074094;28;20204;-86
2023/03/24 12:13:01;;;;;;;1.93;1.70;;;;;;;;;;5073327;28;20721;-84
2023/03/24 12:15:34;;;;;;;2.80;1.90;;;;;;;;;;5073926;28;20236;-86
2023/03/24 12:18:16;;;;;;;1.70;1.30;;;;;;;;;;5073442;28;20239;-87
2023/03/24 12:20:47;;;;;;;1.70;1.40;;;;;;;;;;5071616;28;20205;-86
2023/03/24 12:23:17;;;;;;;1.70;1.33;;;;;;;;;;5073134;28;20234;-85
2023/03/24 12:25:55;;;;;;;4.80;1.50;;;;;;;;;;5074356;28;20194;-88
2023/03/24 12:28:28;;;;;;;2.57;1.33;;;;;;;;;;5073349;28;20244;-88
2023/03/24 12:31:02;;;;;;;2.17;1.37;;;;;;;;;;5074124;28;20197;-86
2023/03/24 12:33:36;;;;;;;1.40;1.30;;;;;;;;;;5072700;28;20260;-86
2023/03/24 12:36:18;;;;;;;1.27;0.90;;;;;;;;;;5074184;28;20193;-87
2023/03/24 12:38:50;;;;;;;1.30;1.20;;;;;;;;;;5073432;28;20228;-87
2023/03/24 12:41:38;;;;;;;1.17;1.10;;;;;;;;;;5073965;28;20197;-87
2023/03/24 12:44:15;;;;;;;2.27;0.90;;;;;;;;;;5067081;28;20251;-87
2023/03/24 12:46:45;;;;;;;1.27;1.10;;;;;;;;;;5077120;28;20248;-87
2023/03/24 12:49:27;;;;;;;2.97;1.20;;;;;;;;;;5094264;28;20197;-87
2023/03/24 12:52:05;;;;;;;3.77;1.37;;;;;;;;;;5093319;28;20227;-86
2023/03/24 12:54:34;;;;;;;1.63;1.00;;;;;;;;;;5093609;28;20655;-86
2023/03/24 12:57:05;;;;;;;3.33;1.00;;;;;;;;;;5093327;28;20729;-86
2023/03/24 12:59:34;;;;;;;3.13;1.43;;;;;;;;;;5093956;28;20234;-86
2023/03/24 13:02:04;;;;;;;1.00;1.00;;;;;;;;;;5092676;28;20256;-87
2023/03/24 13:04:32;;;;;;;1.33;1.23;;;;;;;;;;5093627;28;20200;-86
2023/03/24 13:07:03;;;;;;;7.13;1.70;;;;;;;;;;5092889;28;20700;-86
2023/03/24 13:09:34;;;;;;;1.60;1.20;;;;;;;;;;5093340;28;20712;-86
2023/03/24 13:12:04;;;;;;;2.60;1.20;;;;;;;;;;5092677;28;20229;-87
2023/03/24 13:14:33;;;;;;;3.13;1.53;;;;;;;;;;5093517;28;20215;-87
2023/03/24 13:17:03;;;;;;;1.50;1.40;;;;;;;;;;5092726;28;20235;-87
2023/03/24 13:19:31;;;;;;;1.67;1.40;;;;;;;;;;5093211;28;20212;-87
2023/03/24 13:21:58;;;;;;;3.87;1.40;;;;;;;;;;5092443;28;20236;-87
2023/03/24 13:24:27;;;;;;;4.70;1.63;;;;;;;;;;5093224;28;20199;-87
2023/03/24 13:26:58;;;;;;;2.37;1.50;;;;;;;;;;5092598;28;20247;-86
2023/03/24 13:29:48;;;;;;;2.60;1.60;;;;;;;;;;5093023;28;20199;-88
2023/03/24 13:32:18;;;;;;;2.63;1.92;;;;;;;;;;5092216;28;20235;-87
2023/03/24 13:34:47;;;;;;;2.35;1.50;;;;;;;;;;5092961;28;20212;-87
2023/03/24 13:37:17;;;;;;;2.83;1.55;;;;;;;;;;5092531;28;20328;-87
2023/03/24 13:39:46;;;;;;;3.75;1.60;;;;;;;;;;5092869;28;20572;-87
2023/03/24 13:42:28;;;;;;;1.60;1.15;;;;;;;;;;5092039;28;20237;-86
2023/03/24 13:44:55;;;;;;;4.35;1.30;;;;;;;;;;5092086;28;20189;-85
2023/03/24 13:47:22;;;;;;;1.67;1.20;;;;;;;;;;5092317;28;20239;-86
2023/03/24 13:49:54;;;;;;;1.63;1.52;;;;;;;;;;5092843;28;20200;-87
2023/03/24 13:52:23;;;;;;;1.90;1.52;;;;;;;;;;5092092;28;20264;-85
2023/03/24 13:54:53;;;;;;;1.30;1.17;;;;;;;;;;5092786;28;20204;-85
2023/03/24 13:57:22;;;;;;;2.67;1.60;;;;;;;;;;5092196;28;20259;-87
2023/03/24 14:00:06;;;;;;;1.20;1.10;;;;;;;;;;5092733;28;20200;-87
2023/03/24 14:02:45;;;;;;;1.83;0.98;;;;;;;;;;5091705;28;20286;-86
2023/03/24 14:05:30;;;;;;;3.03;1.52;;;;;;;;;;5092261;28;20189;-87
2023/03/24 14:08:11;;;;;;;2.30;1.38;;;;;;;;;;5091568;28;20731;-87
2023/03/24 14:10:44;;;;;;;3.67;1.30;;;;;;;;;;5092603;28;20195;-88
2023/03/24 14:13:24;;;;;;;3.38;1.42;;;;;;;;;;5091404;28;20236;-86
2023/03/24 14:15:52;;;;;;;5.10;1.30;;;;;;;;;;5086630;28;20197;-88
2023/03/24 14:18:38;;;;;;;1.13;1.05;;;;;;;;;;5091566;28;20243;-86
2023/03/24 14:21:06;;;;;;;4.32;1.10;;;;;;;;;;5092161;28;20205;-86
2023/03/24 14:23:36;;;;;;;1.17;1.08;;;;;;;;;;5091299;28;20233;-87
2023/03/24 14:26:05;;;;;;;2.33;1.23;;;;;;;;;;5092235;28;20633;-86
2023/03/24 14:28:34;;;;;;;2.35;1.33;;;;;;;;;;5091554;28;20232;-87
2023/03/24 14:31:14;;;;;;;2.13;1.35;;;;;;;;;;5072408;28;20205;-87
2023/03/24 14:33:43;;;;;;;3.15;1.08;;;;;;;;;;5071622;28;20232;-87
2023/03/24 14:36:13;;;;;;;1.52;1.02;;;;;;;;;;5071618;28;20201;-88
2023/03/24 14:38:42;;;;;;;1.55;1.05;;;;;;;;;;5080246;28;20232;-87
2023/03/24 14:41:13;;;;;;;3.63;1.40;;;;;;;;;;5082418;28;20322;-87
2023/03/24 14:43:55;;;;;;;2.25;1.00;;;;;;;;;;5071116;28;20241;-88
2023/03/24 14:46:36;;;;;;;2.10;0.80;;;;;;;;;;5071664;28;20567;-86
2023/03/24 14:49:06;;;;;;;2.85;1.08;;;;;;;;;;5081107;28;20200;-87
2023/03/24 14:51:40;;;;;;;3.35;1.40;;;;;;;;;;5091356;28;20249;-86
2023/03/24 14:54:12;;;;;;;4.18;1.60;;;;;;;;;;5084121;28;20201;-86
2023/03/24 14:56:43;;;;;;;1.52;1.10;;;;;;;;;;5072526;28;20241;-86
2023/03/24 14:59:12;;;;;;;1.77;1.15;;;;;;;;;;5076022;28;20198;-87